Time;durP1;ratioP1;P1;durP2;ratioP2;P2;SDS_P1;SDS_P2;PMS_P1;PMS_P2;Temp;Humidity;BMP_temperature;BMP_pressure;BME280_temperature;BME280_humidity;BME280_pressure;Samples;Min_cycle;Max_cycle;Signal;HPM_P1;HPM_P2
2022/07/28 00:01:33;;;;;;;7.30;4.60;;;;;;;24.67;52.70;100286.83;117415;1185;23625;-58
2022/07/28 00:04:00;;;;;;;6.70;4.60;;;;;;;24.66;52.86;100289.41;117325;1185;21853;-59
2022/07/28 00:06:27;;;;;;;5.70;4.70;;;;;;;24.67;52.77;100293.65;117012;1183;24289;-57
2022/07/28 00:08:54;;;;;;;6.10;4.90;;;;;;;24.69;52.66;100293.66;117367;1183;22992;-59
2022/07/28 00:11:21;;;;;;;9.30;4.80;;;;;;;24.73;52.63;100295.23;117304;1182;23467;-60
2022/07/28 00:13:48;;;;;;;6.80;4.50;;;;;;;24.74;52.58;100297.95;117346;1186;22155;-58
2022/07/28 00:16:15;;;;;;;5.00;4.30;;;;;;;24.75;52.52;100295.55;117342;1183;22795;-57
2022/07/28 00:18:42;;;;;;;7.20;4.80;;;;;;;24.75;52.37;100293.04;117364;1186;21855;-59
2022/07/28 00:21:10;;;;;;;6.70;4.20;;;;;;;24.75;52.52;100295.61;117401;1183;23442;-57
2022/07/28 00:23:37;;;;;;;5.70;4.70;;;;;;;24.73;52.50;100296.23;117221;1186;23010;-59
2022/07/28 00:26:06;;;;;;;5.30;4.30;;;;;;;24.70;52.34;100300.25;117152;1187;22941;-59
2022/07/28 00:28:33;;;;;;;6.40;4.50;;;;;;;24.68;52.23;100302.38;117342;1185;23044;-59
2022/07/28 00:31:00;;;;;;;7.50;4.50;;;;;;;24.67;52.26;100302.61;117266;1182;24146;-59
2022/07/28 00:33:31;;;;;;;;;;;;;;;24.66;52.17;100304.11;117106;1184;21832;-58
2022/07/28 00:35:58;;;;;;;5.30;4.10;;;;;;;24.66;52.09;100305.92;117217;1186;22914;-58
2022/07/28 00:38:25;;;;;;;5.00;3.90;;;;;;;24.63;52.10;100300.36;117334;1186;21982;-59
2022/07/28 00:41:10;;;;;;;6.60;4.40;;;;;;;24.60;52.10;100297.17;117220;1182;24159;-57
2022/07/28 00:43:44;;;;;;;6.60;4.70;;;;;;;24.57;52.14;100297.38;117029;1184;23304;-57
2022/07/28 00:46:13;;;;;;;7.70;5.10;;;;;;;24.46;52.26;100296.92;117366;1186;23656;-59
2022/07/28 00:48:42;;;;;;;10.10;5.00;;;;;;;24.40;52.54;100294.63;117382;1185;21866;-58
2022/07/28 00:51:10;;;;;;;7.80;4.50;;;;;;;24.38;52.77;100294.27;117101;1183;22986;-59
2022/07/28 00:53:37;;;;;;;13.90;5.00;;;;;;;24.37;52.91;100293.28;117165;1184;23040;-59
2022/07/28 00:56:05;;;;;;;5.60;4.50;;;;;;;24.35;52.87;100289.63;117384;1182;23479;-58
2022/07/28 00:58:34;;;;;;;5.90;4.70;;;;;;;24.34;53.27;100286.80;117048;1187;22954;-59
2022/07/28 01:01:00;;;;;;;7.40;4.90;;;;;;;24.32;53.21;100286.98;117248;1184;22955;-59
2022/07/28 01:03:27;;;;;;;6.10;4.80;;;;;;;24.41;53.03;100285.64;117052;1188;22647;-58
2022/07/28 01:05:57;;;;;;;7.30;4.70;;;;;;;24.47;52.96;100281.09;116995;1187;22922;-58
2022/07/28 01:08:46;;;;;;;7.50;5.00;;;;;;;24.50;52.99;100282.27;117237;1185;22624;-57
2022/07/28 01:11:36;;;;;;;6.10;5.30;;;;;;;24.50;52.86;100283.02;117106;1185;22918;-58
2022/07/28 01:14:33;;;;;;;7.20;4.90;;;;;;;24.51;52.75;100285.78;117308;1185;21886;-58
2022/07/28 01:17:01;;;;;;;10.00;4.60;;;;;;;24.55;52.81;100287.10;117281;1186;23592;-58
2022/07/28 01:19:36;;;;;;;8.40;5.10;;;;;;;24.56;52.63;100285.83;117038;1187;23692;-58
2022/07/28 01:22:03;;;;;;;11.00;5.70;;;;;;;24.53;52.88;100286.73;117247;1184;21856;-57
2022/07/28 01:24:35;;;;;;;7.30;5.80;;;;;;;24.39;52.93;100290.05;117171;1185;22324;-59
2022/07/28 01:27:08;;;;;;;6.70;5.00;;;;;;;24.31;53.20;100290.05;117239;1182;23560;-57
2022/07/28 01:29:44;;;;;;;9.70;5.70;;;;;;;24.30;53.18;100294.99;117384;1183;22517;-59
2022/07/28 01:32:15;;;;;;;6.90;5.50;;;;;;;24.34;53.24;100298.27;117409;1186;23538;-59
2022/07/28 01:35:13;;;;;;;10.70;6.00;;;;;;;24.32;53.05;100300.26;117339;1183;23607;-57
2022/07/28 01:37:45;;;;;;;14.20;6.10;;;;;;;24.26;53.43;100301.76;117343;1186;24170;-57
2022/07/28 01:40:14;;;;;;;10.50;6.20;;;;;;;24.17;53.80;100303.96;117412;1185;21842;-58
2022/07/28 01:42:43;;;;;;;11.20;6.10;;;;;;;24.12;53.62;100302.00;117388;1185;21959;-58
2022/07/28 01:45:11;;;;;;;6.90;5.90;;;;;;;24.11;53.58;100300.63;117060;1187;21977;-57
2022/07/28 01:47:39;;;;;;;7.50;5.90;;;;;;;24.10;53.67;100297.65;117147;1183;21853;-58
2022/07/28 01:50:07;;;;;;;8.70;5.80;;;;;;;24.09;53.52;100302.56;117471;1186;21854;-57
2022/07/28 01:52:34;;;;;;;7.40;6.00;;;;;;;24.06;53.53;100308.50;117353;1185;23614;-57
2022/07/28 01:55:01;;;;;;;7.80;6.40;;;;;;;24.03;53.61;100310.70;117214;1182;22986;-59
2022/07/28 01:57:31;;;;;;;8.60;6.50;;;;;;;24.00;53.67;100307.15;117212;1185;23566;-59
2022/07/28 01:59:59;;;;;;;10.40;6.50;;;;;;;23.98;53.82;100306.04;117443;1183;23720;-58
2022/07/28 02:02:27;;;;;;;8.10;5.70;;;;;;;23.96;53.84;100306.69;117387;1182;22616;-57
2022/07/28 02:04:55;;;;;;;11.40;6.00;;;;;;;23.92;53.93;100311.05;117373;1185;21964;-58
2022/07/28 02:07:22;;;;;;;11.60;6.80;;;;;;;23.86;54.29;100308.11;117390;1182;22651;-57
2022/07/28 02:09:49;;;;;;;8.80;6.50;;;;;;;23.76;54.07;100307.66;117334;1185;21842;-59
2022/07/28 02:12:16;;;;;;;8.00;6.30;;;;;;;23.74;54.05;100310.89;117156;1183;23589;-57
2022/07/28 02:14:46;;;;;;;8.70;5.40;;;;;;;23.73;54.21;100318.30;117123;1188;21880;-59
2022/07/28 02:17:16;;;;;;;7.70;5.90;;;;;;;23.69;54.36;100322.13;117347;1186;23550;-57
2022/07/28 02:19:43;;;;;;;;;;;;;;;23.66;54.35;100320.71;117466;1186;22914;-58
2022/07/28 02:22:10;;;;;;;9.70;5.80;;;;;;;23.64;54.27;100320.86;117399;1183;22479;-59
2022/07/28 02:24:37;;;;;;;11.60;6.10;;;;;;;23.63;54.33;100323.65;117283;1180;22479;-57
2022/07/28 02:27:16;;;;;;;9.90;6.30;;;;;;;23.55;54.63;100319.50;117202;1182;23585;-57
2022/07/28 02:29:48;;;;;;;8.10;5.90;;;;;;;23.55;54.44;100320.63;117311;1183;21854;-59
2022/07/28 02:32:27;;;;;;;14.20;7.40;;;;;;;23.56;54.85;100326.42;117238;1186;21848;-59
2022/07/28 02:35:04;;;;;;;17.80;7.40;;;;;;;23.66;54.55;100327.52;117361;1186;21858;-59
2022/07/28 02:37:40;;;;;;;19.20;7.00;;;;;;;23.74;54.50;100330.21;117233;1185;23702;-58
2022/07/28 02:40:12;;;;;;;15.00;7.10;;;;;;;23.78;54.29;100332.48;117317;1183;21895;-57
2022/07/28 02:42:39;;;;;;;7.80;6.20;;;;;;;23.76;54.26;100339.61;117450;1185;22962;-59
2022/07/28 02:45:07;;;;;;;11.00;6.10;;;;;;;23.70;54.37;100338.20;117346;1185;21844;-59
2022/07/28 02:47:37;;;;;;;12.60;6.20;;;;;;;23.68;54.38;100338.17;117473;1186;23557;-59
2022/07/28 02:50:05;;;;;;;13.60;6.80;;;;;;;23.68;54.47;100340.46;117375;1181;22915;-58
2022/07/28 02:52:32;;;;;;;9.00;6.10;;;;;;;23.70;54.50;100343.05;117351;1181;21856;-58
2022/07/28 02:54:59;;;;;;;7.70;6.00;;;;;;;23.71;54.57;100340.27;117290;1186;23545;-59
2022/07/28 02:57:27;;;;;;;17.50;7.00;;;;;;;23.73;54.58;100335.33;117278;1186;23692;-59
2022/07/28 02:59:54;;;;;;;24.00;11.80;;;;;;;23.76;54.30;100335.65;117352;1184;22912;-57
2022/07/28 03:02:22;;;;;;;13.80;7.00;;;;;;;23.77;54.16;100336.62;117261;1186;22701;-58
2022/07/28 03:04:55;;;;;;;10.20;7.30;;;;;;;23.71;54.29;100337.95;117257;1189;24235;-59
2022/07/28 03:07:25;;;;;;;9.00;6.90;;;;;;;23.73;54.33;100339.97;117303;1186;21854;-57
2022/07/28 03:09:52;;;;;;;8.10;6.70;;;;;;;23.76;54.32;100341.57;117342;1185;21851;-57
2022/07/28 03:12:19;;;;;;;14.00;6.50;;;;;;;23.74;54.39;100344.88;117327;1183;22915;-59
2022/07/28 03:14:47;;;;;;;8.00;5.90;;;;;;;23.76;54.57;100352.30;117448;1186;23569;-58
2022/07/28 03:17:15;;;;;;;13.90;6.80;;;;;;;23.86;54.40;100358.75;117384;1183;23539;-58
2022/07/28 03:19:43;;;;;;;10.50;6.40;;;;;;;23.97;54.33;100362.52;117352;1186;21937;-59
2022/07/28 03:22:10;;;;;;;11.00;7.40;;;;;;;24.00;54.43;100362.15;117441;1183;21852;-57
2022/07/28 03:24:39;;;;;;;11.70;6.90;;;;;;;24.11;54.59;100360.54;117392;1187;21847;-59
2022/07/28 03:27:12;;;;;;;12.30;6.60;;;;;;;24.18;54.38;100363.09;117924;1186;22808;-58
2022/07/28 03:29:40;;;;;;;16.40;6.80;;;;;;;24.25;54.55;100363.70;118168;1185;21863;-59
2022/07/28 03:32:08;;;;;;;11.30;6.80;;;;;;;24.24;54.69;100362.49;117440;1185;23541;-57
2022/07/28 03:34:35;;;;;;;17.00;6.90;;;;;;;24.24;54.65;100364.46;117225;1185;23640;-59
2022/07/28 03:37:07;;;;;;;12.50;7.00;;;;;;;24.27;54.75;100365.52;117068;1181;21862;-57
2022/07/28 03:39:37;;;;;;;10.80;6.10;;;;;;;24.30;54.73;100369.07;117380;1185;23557;-58
2022/07/28 03:42:04;;;;;;;;;;;;;;;24.33;54.75;100370.84;117414;1185;22816;-57
2022/07/28 03:44:32;;;;;;;14.40;6.30;;;;;;;24.32;54.75;100369.58;117270;1186;23570;-59
2022/07/28 03:46:59;;;;;;;15.10;6.70;;;;;;;24.37;54.66;100369.30;117188;1188;21857;-59
2022/07/28 03:49:26;;;;;;;14.60;7.00;;;;;;;24.41;54.64;100368.83;117451;1186;23566;-57
2022/07/28 03:51:53;;;;;;;18.20;6.80;;;;;;;24.46;54.61;100369.75;117435;1183;24149;-59
2022/07/28 03:54:20;;;;;;;21.10;7.50;;;;;;;24.49;54.76;100368.98;117369;1188;23685;-59
2022/07/28 03:56:47;;;;;;;21.20;6.80;;;;;;;24.44;55.08;100369.47;117355;1185;23563;-59
2022/07/28 03:59:15;;;;;;;18.20;7.40;;;;;;;24.44;55.27;100372.38;117396;1186;22905;-57
2022/07/28 04:01:43;;;;;;;14.60;7.60;;;;;;;24.49;55.35;100376.13;117310;1183;23682;-59
2022/07/28 04:04:11;;;;;;;12.20;6.50;;;;;;;24.59;55.48;100374.88;117325;1185;21860;-58
2022/07/28 04:06:38;;;;;;;8.50;6.20;;;;;;;24.71;55.53;100377.08;117314;1188;22914;-58
2022/07/28 04:09:05;;;;;;;12.30;6.70;;;;;;;24.82;55.85;100375.64;117378;1185;22950;-58
2022/07/28 04:11:32;;;;;;;11.70;6.10;;;;;;;24.89;55.89;100374.02;117311;1183;22812;-59
2022/07/28 04:13:59;;;;;;;10.40;6.40;;;;;;;24.98;55.72;100372.86;117104;1189;22327;-58
2022/07/28 04:16:26;;;;;;;10.50;6.70;;;;;;;25.10;55.81;100372.89;117368;1183;23557;-59
2022/07/28 04:18:54;;;;;;;11.20;6.40;;;;;;;25.24;55.67;100370.24;117442;1186;21895;-58
2022/07/28 04:21:21;;;;;;;10.50;6.20;;;;;;;25.39;55.48;100370.76;117313;1186;21854;-58
2022/07/28 04:23:49;;;;;;;9.80;6.00;;;;;;;25.53;55.31;100370.30;117249;1186;22889;-58
2022/07/28 04:26:16;;;;;;;7.60;5.60;;;;;;;25.66;55.12;100373.30;117430;1186;23724;-59
2022/07/28 04:28:44;;;;;;;14.30;5.60;;;;;;;25.79;54.80;100367.45;117379;1183;23465;-58
2022/07/28 04:31:11;;;;;;;7.80;5.20;;;;;;;25.86;54.81;100368.16;117096;1187;21857;-58
2022/07/28 04:33:38;;;;;;;9.40;5.90;;;;;;;25.91;54.61;100370.08;117209;1186;22989;-57
2022/07/28 04:36:05;;;;;;;7.80;5.10;;;;;;;25.99;54.47;100371.14;117367;1186;21851;-59
2022/07/28 04:38:33;;;;;;;8.10;6.00;;;;;;;26.06;54.37;100376.69;117352;1183;21864;-57
2022/07/28 04:41:00;;;;;;;8.70;5.60;;;;;;;26.13;54.41;100379.41;117345;1181;22932;-57
2022/07/28 04:43:27;;;;;;;8.30;5.50;;;;;;;26.20;54.29;100381.73;117461;1182;23553;-58
2022/07/28 04:45:54;;;;;;;12.60;6.00;;;;;;;26.31;54.21;100382.33;117376;1182;23017;-57
2022/07/28 04:48:22;;;;;;;9.00;6.50;;;;;;;26.41;54.13;100382.63;117298;1186;23531;-57
2022/07/28 04:50:51;;;;;;;10.70;5.90;;;;;;;26.49;53.94;100387.91;117424;1186;21855;-58
2022/07/28 04:53:19;;;;;;;9.40;6.10;;;;;;;26.56;53.93;100392.23;117436;1183;23045;-58
2022/07/28 04:55:46;;;;;;;12.90;5.80;;;;;;;26.64;53.79;100392.56;117427;1183;23546;-58
2022/07/28 04:58:17;;;;;;;7.80;5.40;;;;;;;26.73;53.74;100394.30;117323;1186;21870;-57
2022/07/28 05:00:45;;;;;;;;;;;;;;;26.82;53.60;100393.80;117376;1186;22889;-58
2022/07/28 05:03:15;;;;;;;;;;;;;;;26.94;53.34;100401.27;117394;1183;21864;-59
2022/07/28 05:05:42;;;;;;;8.40;5.10;;;;;;;27.04;53.19;100409.17;117303;1183;24166;-58
2022/07/28 05:08:15;;;;;;;8.70;5.60;;;;;;;27.05;52.90;100409.45;117294;1181;23480;-57
2022/07/28 05:10:42;;;;;;;7.70;5.80;;;;;;;27.03;52.72;100415.33;117406;1181;22918;-57
2022/07/28 05:13:09;;;;;;;6.70;5.30;;;;;;;27.03;52.88;100422.75;117397;1186;23293;-59
2022/07/28 05:15:36;;;;;;;12.70;6.00;;;;;;;27.03;52.76;100426.34;117357;1183;22964;-58
2022/07/28 05:18:04;;;;;;;7.60;5.60;;;;;;;27.03;52.72;100422.73;117348;1183;21849;-59
2022/07/28 05:20:32;;;;;;;10.20;5.40;;;;;;;27.05;52.61;100424.77;117417;1186;21863;-58
2022/07/28 05:22:59;;;;;;;13.00;5.60;;;;;;;27.04;52.56;100425.20;117413;1183;23555;-58
2022/07/28 05:25:26;;;;;;;14.20;5.80;;;;;;;26.99;52.78;100428.11;117273;1186;23373;-57
2022/07/28 05:27:53;;;;;;;10.00;5.90;;;;;;;27.02;52.90;100429.45;117200;1184;22321;-57
2022/07/28 05:30:20;;;;;;;13.20;5.40;;;;;;;27.12;52.78;100429.95;117378;1182;21904;-59
2022/07/28 05:32:52;;;;;;;17.60;6.30;;;;;;;27.24;52.91;100425.59;117371;1183;21932;-60
2022/07/28 05:35:19;;;;;;;14.90;6.50;;;;;;;27.39;52.65;100429.21;117166;1186;21919;-60
2022/07/28 05:37:46;;;;;;;11.80;5.60;;;;;;;27.51;52.43;100429.67;117368;1182;24191;-59
2022/07/28 05:40:14;;;;;;;8.50;5.20;;;;;;;27.62;52.00;100426.95;117361;1185;21960;-59
2022/07/28 05:42:41;;;;;;;14.00;5.20;;;;;;;27.80;51.81;100425.62;117384;1185;21866;-58
2022/07/28 05:45:10;;;;;;;7.30;4.60;;;;;;;28.01;51.35;100429.45;117343;1185;22905;-59
2022/07/28 05:47:46;;;;;;;10.60;5.00;;;;;;;28.19;50.68;100425.05;117322;1185;23493;-58
2022/07/28 05:50:14;;;;;;;9.20;5.20;;;;;;;28.36;50.42;100422.91;117409;1182;23544;-57
2022/07/28 05:52:41;;;;;;;8.60;5.00;;;;;;;28.53;50.89;100418.89;117287;1186;21858;-59
2022/07/28 05:55:09;;;;;;;16.90;5.60;;;;;;;28.71;50.69;100422.94;117369;1181;21840;-58
2022/07/28 05:57:36;;;;;;;8.80;4.80;;;;;;;28.97;50.56;100431.58;117422;1182;22619;-59
2022/07/28 06:00:06;;;;;;;6.80;4.80;;;;;;;29.25;49.77;100436.98;117403;1186;22806;-59
2022/07/28 06:02:33;;;;;;;9.00;4.60;;;;;;;29.53;49.85;100437.86;117306;1185;21856;-59
2022/07/28 06:05:00;;;;;;;22.60;5.60;;;;;;;29.81;49.22;100439.96;117364;1183;23602;-58
2022/07/28 06:07:27;;;;;;;9.60;4.60;;;;;;;30.12;48.80;100432.42;117467;1186;22953;-56
2022/07/28 06:10:10;;;;;;;12.80;4.90;;;;;;;30.44;48.03;100430.36;117352;1185;21855;-56
2022/07/28 06:12:46;;;;;;;9.30;4.60;;;;;;;30.70;47.24;100430.27;117388;1184;21853;-58
2022/07/28 06:15:15;;;;;;;8.80;5.10;;;;;;;30.93;47.42;100432.93;117319;1185;21897;-58
2022/07/28 06:17:42;;;;;;;8.10;4.20;;;;;;;30.99;47.52;100433.59;117279;1188;21910;-58
2022/07/28 06:20:10;;;;;;;9.60;4.00;;;;;;;31.08;47.37;100436.01;117105;1182;24182;-58
2022/07/28 06:22:43;;;;;;;8.20;4.00;;;;;;;31.12;46.20;100434.13;117211;1188;22910;-58
2022/07/28 06:25:19;;;;;;;8.50;4.80;;;;;;;31.13;46.85;100442.02;118193;1186;22645;-58
2022/07/28 06:27:48;;;;;;;8.30;4.30;;;;;;;31.16;46.70;100444.84;117247;1182;22310;-58
2022/07/28 06:30:15;;;;;;;5.60;4.10;;;;;;;31.14;46.57;100440.27;117326;1185;21857;-59
2022/07/28 06:32:43;;;;;;;7.30;4.10;;;;;;;31.17;46.32;100438.80;117337;1185;21864;-58
2022/07/28 06:35:13;;;;;;;9.40;4.00;;;;;;;31.17;46.06;100436.98;117327;1183;22087;-58
2022/07/28 06:37:40;;;;;;;;;;;;;;;31.09;45.97;100440.95;117231;1186;21854;-59
2022/07/28 06:40:08;;;;;;;7.50;4.40;;;;;;;31.01;45.95;100444.86;118708;1182;21932;-58
2022/07/28 06:42:35;;;;;;;11.50;4.20;;;;;;;31.00;46.04;100451.63;117087;1182;23537;-58
2022/07/28 06:45:03;;;;;;;7.50;4.00;;;;;;;31.00;45.62;100452.52;117144;1185;22067;-58
2022/07/28 06:47:30;;;;;;;8.10;4.30;;;;;;;30.98;45.20;100453.83;117278;1185;22764;-58
2022/07/28 06:49:58;;;;;;;6.20;4.30;;;;;;;30.95;45.99;100456.30;117280;1182;22050;-58
2022/07/28 06:52:25;;;;;;;9.10;4.70;;;;;;;30.88;45.57;100456.01;117184;1188;21857;-58
2022/07/28 06:54:52;;;;;;;7.00;4.00;;;;;;;30.83;45.25;100459.64;117251;1188;21856;-59
2022/07/28 06:57:24;;;;;;;19.30;5.10;;;;;;;30.75;45.33;100460.75;117223;1188;21858;-59
2022/07/28 07:00:01;;;;;;;9.80;4.70;;;;;;;30.64;45.03;100460.74;117391;1185;22055;-58
2022/07/28 07:02:29;;;;;;;10.00;4.60;;;;;;;30.48;45.20;100463.52;117218;1185;23446;-58
2022/07/28 07:04:57;;;;;;;8.20;4.00;;;;;;;30.28;45.36;100457.61;117279;1183;22837;-59
2022/07/28 07:07:25;;;;;;;9.10;4.40;;;;;;;30.10;45.67;100459.20;117152;1188;21811;-59
2022/07/28 07:09:52;;;;;;;13.60;4.80;;;;;;;29.98;45.39;100461.09;117386;1183;21866;-58
2022/07/28 07:12:19;;;;;;;9.40;4.30;;;;;;;29.82;45.42;100463.08;117197;1188;24165;-58
2022/07/28 07:14:46;;;;;;;8.50;4.50;;;;;;;29.72;45.56;100466.55;117275;1188;24217;-59
2022/07/28 07:17:13;;;;;;;8.20;4.50;;;;;;;29.65;45.60;100469.86;117188;1182;21855;-58
2022/07/28 07:19:40;;;;;;;9.30;4.70;;;;;;;29.66;45.73;100469.62;117421;1185;23075;-58
2022/07/28 07:22:07;;;;;;;10.80;4.90;;;;;;;29.74;45.80;100470.69;117346;1188;23554;-59
2022/07/28 07:24:36;;;;;;;7.80;5.30;;;;;;;29.93;45.99;100471.82;117239;1185;21903;-59
2022/07/28 07:27:04;;;;;;;9.30;4.90;;;;;;;30.21;45.10;100472.20;117178;1188;23548;-59
2022/07/28 07:29:31;;;;;;;11.70;5.50;;;;;;;30.52;45.08;100473.65;117303;1188;23560;-59
2022/07/28 07:31:59;;;;;;;6.80;4.20;;;;;;;30.85;44.91;100474.05;117217;1186;21888;-59
2022/07/28 07:34:26;;;;;;;10.20;4.30;;;;;;;31.13;44.23;100478.44;117236;1186;21923;-59
2022/07/28 07:36:53;;;;;;;8.40;4.50;;;;;;;31.38;44.13;100481.07;117297;1186;22708;-59
2022/07/28 07:39:20;;;;;;;7.00;5.20;;;;;;;31.59;43.57;100482.86;117111;1187;22627;-59
2022/07/28 07:41:47;;;;;;;6.50;4.50;;;;;;;31.70;43.80;100484.83;116945;1186;23966;-59
2022/07/28 07:44:14;;;;;;;6.60;4.50;;;;;;;31.96;43.54;100486.44;117125;1186;22878;-59
2022/07/28 07:46:43;;;;;;;7.20;4.60;;;;;;;32.27;42.95;100485.10;117204;1187;23550;-59
2022/07/28 07:49:11;;;;;;;9.90;4.40;;;;;;;32.53;42.39;100479.23;117051;1186;21865;-59
2022/07/28 07:51:38;;;;;;;6.10;4.40;;;;;;;32.77;41.78;100478.70;117199;1186;23560;-59
2022/07/28 07:54:06;;;;;;;16.80;4.70;;;;;;;33.05;42.04;100482.30;117337;1184;22637;-59
2022/07/28 07:56:35;;;;;;;9.90;4.20;;;;;;;33.28;41.05;100480.31;117267;1186;21853;-59
2022/07/28 07:59:02;;;;;;;10.50;5.30;;;;;;;33.42;40.95;100480.85;117322;1186;23446;-59
2022/07/28 08:01:30;;;;;;;11.00;4.10;;;;;;;33.59;40.65;100480.17;117252;1186;21903;-59
2022/07/28 08:03:59;;;;;;;8.10;3.90;;;;;;;33.93;40.69;100477.46;117380;1186;22953;-59
2022/07/28 08:06:26;;;;;;;8.80;4.60;;;;;;;34.30;40.39;100479.75;117378;1185;23475;-59
2022/07/28 08:08:54;;;;;;;7.80;4.20;;;;;;;34.62;40.69;100475.11;117258;1185;23265;-59
2022/07/28 08:11:22;;;;;;;6.30;4.10;;;;;;;35.14;41.07;100472.73;117046;1188;23484;-59
2022/07/28 08:13:48;;;;;;;14.10;4.80;;;;;;;35.74;40.50;100469.89;117138;1188;21853;-60
2022/07/28 08:16:16;;;;;;;10.30;4.10;;;;;;;36.22;39.01;100465.22;117337;1183;22808;-59
2022/07/28 08:18:44;;;;;;;13.00;4.20;;;;;;;36.51;38.86;100463.92;117335;1185;21857;-58
2022/07/28 08:21:11;;;;;;;7.10;4.20;;;;;;;36.69;37.81;100463.38;117402;1186;21844;-59
2022/07/28 08:23:39;;;;;;;7.00;4.00;;;;;;;36.78;38.33;100465.83;117297;1188;22921;-59
2022/07/28 08:26:06;;;;;;;6.30;3.70;;;;;;;36.98;37.20;100467.92;117384;1186;21823;-59
2022/07/28 08:28:34;;;;;;;6.30;3.90;;;;;;;37.20;37.14;100467.77;117099;1186;21859;-59
2022/07/28 08:31:01;;;;;;;7.70;3.10;;;;;;;37.35;37.43;100463.56;117225;1186;24166;-59
2022/07/28 08:33:29;;;;;;;9.40;3.30;;;;;;;37.48;35.74;100466.86;117858;1186;21855;-60
2022/07/28 08:35:59;;;;;;;10.30;3.30;;;;;;;37.31;34.57;100468.42;117928;1187;21861;-60
2022/07/28 08:38:30;;;;;;;;;;;;;;;37.23;35.98;100475.45;117758;1186;22825;-62
2022/07/28 08:40:59;;;;;;;8.00;3.70;;;;;;;37.23;34.55;100475.66;117605;1186;21899;-60
2022/07/28 08:43:34;;;;;;;7.00;2.90;;;;;;;37.13;34.75;100474.23;117079;1186;23457;-60
2022/07/28 08:46:03;;;;;;;8.20;3.40;;;;;;;37.11;32.92;100474.00;117047;1183;21903;-60
2022/07/28 08:48:36;;;;;;;9.60;3.50;;;;;;;37.11;33.28;100475.98;117131;1187;21829;-60
2022/07/28 08:51:05;;;;;;;8.50;3.90;;;;;;;37.07;33.21;100468.64;117026;1187;21843;-60
2022/07/28 08:53:34;;;;;;;10.50;3.50;;;;;;;36.94;32.79;100470.73;117164;1184;21848;-60
2022/07/28 08:56:06;;;;;;;6.60;3.40;;;;;;;36.96;34.19;100469.21;117527;1187;21865;-60
2022/07/28 08:58:34;;;;;;;3.80;2.80;;;;;;;37.27;34.19;100464.56;117326;1186;23487;-60
2022/07/28 09:01:01;;;;;;;8.20;3.40;;;;;;;37.42;32.53;100461.53;117358;1186;23564;-60
2022/07/28 09:03:28;;;;;;;8.60;3.50;;;;;;;37.55;33.32;100460.27;117093;1182;22983;-60
2022/07/28 09:05:56;;;;;;;5.30;3.00;;;;;;;37.73;32.76;100461.37;117202;1188;22777;-60
2022/07/28 09:08:23;;;;;;;9.40;3.10;;;;;;;37.83;31.58;100460.58;117376;1188;24137;-59
2022/07/28 09:10:51;;;;;;;7.30;3.20;;;;;;;37.86;31.90;100460.18;117292;1183;22896;-59
2022/07/28 09:13:19;;;;;;;6.50;3.20;;;;;;;37.95;32.00;100455.38;117376;1185;23677;-60
2022/07/28 09:15:46;;;;;;;7.00;3.10;;;;;;;38.05;32.04;100454.36;117261;1186;23536;-60
2022/07/28 09:18:16;;;;;;;7.30;2.90;;;;;;;38.03;31.80;100452.75;117271;1186;21967;-60
2022/07/28 09:20:43;;;;;;;;;;;;;;;38.10;32.30;100453.70;117300;1187;24181;-60
2022/07/28 09:23:12;;;;;;;9.90;3.60;;;;;;;38.47;31.67;100452.87;117103;1186;21869;-59
2022/07/28 09:26:07;;;;;;;7.20;4.00;;;;;;;38.82;31.67;100449.89;117339;1186;21977;-60
2022/07/28 09:28:48;;;;;;;5.80;2.90;;;;;;;39.17;31.61;100448.48;117177;1186;21916;-59
2022/07/28 09:31:16;;;;;;;9.20;3.40;;;;;;;39.46;31.01;100445.77;116861;1189;23564;-59
2022/07/28 09:34:10;;;;;;;5.80;3.10;;;;;;;39.57;30.39;100447.23;117190;1184;23712;-59
2022/07/28 09:36:39;;;;;;;5.40;3.10;;;;;;;39.46;29.37;100447.30;117070;1188;21912;-59
2022/07/28 09:39:07;;;;;;;7.90;3.00;;;;;;;39.37;29.52;100449.48;117355;1186;21898;-60
2022/07/28 09:41:56;;;;;;;8.00;3.10;;;;;;;39.27;29.33;100445.96;116984;1187;22999;-58
2022/07/28 09:44:25;;;;;;;8.50;3.20;;;;;;;39.16;28.24;100441.91;117316;1185;21867;-59
2022/07/28 09:46:54;;;;;;;9.50;3.60;;;;;;;39.04;28.60;100445.00;117175;1188;21848;-59
2022/07/28 09:49:38;;;;;;;3.40;2.80;;;;;;;38.97;26.35;100444.76;117214;1186;23474;-58
2022/07/28 09:52:08;;;;;;;3.90;2.60;;;;;;;38.95;27.27;100447.75;117123;1182;22757;-58
2022/07/28 09:54:36;;;;;;;4.90;3.30;;;;;;;39.14;28.24;100445.46;117171;1185;21914;-58
2022/07/28 09:57:09;;;;;;;4.10;2.80;;;;;;;39.27;28.18;100446.70;117275;1188;22993;-58
2022/07/28 09:59:41;;;;;;;11.20;3.30;;;;;;;39.27;28.15;100454.43;117209;1186;22991;-58
2022/07/28 10:02:11;;;;;;;6.70;3.20;;;;;;;39.33;28.32;100451.45;117254;1186;22731;-59
2022/07/28 10:04:40;;;;;;;13.00;3.60;;;;;;;39.40;28.07;100450.48;117308;1185;21901;-58
2022/07/28 10:07:16;;;;;;;4.90;2.80;;;;;;;39.45;27.72;100453.23;117282;1186;22964;-58
2022/07/28 10:09:54;;;;;;;7.00;3.10;;;;;;;39.41;27.66;100454.96;117129;1185;21860;-59
2022/07/28 10:12:26;;;;;;;3.70;2.90;;;;;;;39.48;28.32;100453.79;117359;1182;21846;-60
2022/07/28 10:14:55;;;;;;;4.30;2.80;;;;;;;39.51;27.40;100454.22;117223;1182;21880;-58
2022/07/28 10:17:32;;;;;;;4.70;3.10;;;;;;;39.43;27.73;100448.58;117225;1188;24832;-58
2022/07/28 10:20:02;;;;;;;6.90;3.20;;;;;;;39.61;28.11;100443.59;116998;1187;24308;-58
2022/07/28 10:22:36;;;;;;;4.20;3.10;;;;;;;39.89;26.01;100450.59;117126;1187;21886;-58
2022/07/28 10:25:10;;;;;;;4.60;2.70;;;;;;;39.94;25.71;100447.35;117215;1185;21857;-59
2022/07/28 10:27:39;;;;;;;4.10;2.60;;;;;;;40.04;27.10;100443.10;117276;1186;21902;-59
2022/07/28 10:30:07;;;;;;;8.90;3.20;;;;;;;40.33;26.54;100442.63;117132;1183;23669;-59
2022/07/28 10:32:40;;;;;;;7.80;3.30;;;;;;;40.28;24.93;100446.66;117204;1188;21941;-58
2022/07/28 10:35:08;;;;;;;6.50;3.30;;;;;;;39.93;24.80;100449.25;117189;1182;21863;-59
2022/07/28 10:37:52;;;;;;;9.60;3.10;;;;;;;39.82;25.81;100450.85;117183;1185;22689;-60
2022/07/28 10:40:25;;;;;;;6.50;3.30;;;;;;;39.87;26.07;100451.79;117172;1186;24290;-59
2022/07/28 10:42:52;;;;;;;8.70;3.90;;;;;;;39.81;26.25;100448.94;117107;1188;22657;-59
2022/07/28 10:45:20;;;;;;;7.40;3.60;;;;;;;39.69;26.18;100446.99;117191;1186;22584;-60
2022/07/28 10:47:47;;;;;;;7.10;3.90;;;;;;;39.48;26.73;100451.66;117437;1186;22651;-59
2022/07/28 10:50:15;;;;;;;8.20;4.10;;;;;;;39.15;28.52;100455.53;117461;1186;21870;-60
2022/07/28 10:52:42;;;;;;;10.10;4.50;;;;;;;38.73;28.99;100459.86;117322;1186;24211;-59
2022/07/28 10:56:01;;;;;;;11.10;4.60;;;;;;;38.20;29.71;100457.08;117301;1186;22913;-58
2022/07/28 10:58:45;;;;;;;9.40;4.10;;;;;;;37.65;29.42;100459.73;116868;1189;21973;-58
2022/07/28 11:01:32;;;;;;;9.10;4.70;;;;;;;37.19;29.49;100460.59;116866;1188;22924;-58
2022/07/28 11:04:46;;;;;;;6.50;4.10;;;;;;;36.78;29.39;100462.60;116980;1189;21860;-58
2022/07/28 11:07:15;;;;;;;8.60;4.10;;;;;;;36.37;29.64;100461.00;117406;1186;23838;-58
2022/07/28 11:09:46;;;;;;;8.50;4.00;;;;;;;36.17;30.23;100463.83;117167;1186;23696;-57
2022/07/28 11:12:14;;;;;;;6.20;4.20;;;;;;;36.12;30.15;100463.66;117240;1185;22653;-58
2022/07/28 11:14:42;;;;;;;5.20;4.00;;;;;;;36.05;30.98;100462.70;117096;1186;21858;-58
2022/07/28 11:17:10;;;;;;;10.10;4.30;;;;;;;35.91;31.40;100460.86;116723;1188;23443;-58
2022/07/28 11:19:43;;;;;;;16.20;5.30;;;;;;;35.82;31.30;100456.57;116963;1187;22098;-58
2022/07/28 11:22:32;;;;;;;9.00;4.40;;;;;;;35.75;31.09;100462.86;117004;1188;22223;-58
2022/07/28 11:25:00;;;;;;;;;;;;;;;35.65;30.78;100463.88;116964;1188;21844;-57
2022/07/28 11:27:50;;;;;;;10.40;4.20;;;;;;;35.65;31.07;100462.89;117296;1183;21901;-58
2022/07/28 11:30:19;;;;;;;7.20;4.00;;;;;;;35.62;31.30;100465.54;117155;1186;22919;-58